KBHK

Baker Municipal Airport

Baker, Montana, USA
METAR KBHK 181051Z AUTO 13003KT 10SM CLR 08/08 A3015 RMK AO2 SLP204 T00830083
Observed Flight Rules
Jun-18 @ 10:51 UTC (18 minutes ago) Visual Flight Rules
Wind Visibility Clouds
130° at 3 knots 10 miles
  • Clear skies
Temperatures Readings
Current 8°C / 46°F
Dewpoint 8°C / 46°F
Humidity 100%
Altimeter 30.15" Hg
Pressure 1020.4 hPa
Elevation 902
METAR KBHK 181051Z AUTO 13003KT 10SM CLR 08/08 A3015 RMK AO2 SLP204 T00830083
Observed Flight Rules
Jun-18 @ 10:51 UTC
(18 minutes ago)
VFR
Wind Visibility
130° at 3 knots 10 miles
Clouds
  • Clear skies
Temperature Dewpoint
8°C / 46°F 8°C / 46°F
Humidity Altimeter Pressure
100% 30.15" Hg 1020.4 hPa